This is the latest recevied weather packets stored in our database for station/object 9W2YIE-13. If no packets are shown the sender has not sent any weather packets the latest 10 day(s).
| Time | Temp. | Humidity | Pressure | Rain* | Wind** | Luminosity | Snow |
|---|---|---|---|---|---|---|---|
| 1788124412 | 38.33° C | 43% | 1007 hPa | - | - | 0 W/m² | - |
| 1788123462 | 38.33° C | 43% | 1007 hPa | - | - | 0 W/m² | - |
| 1788122469 | 39.44° C | 41% | 1007 hPa | - | - | 0 W/m² | - |
| 1788121506 | 39.44° C | 42% | 1007 hPa | - | - | 0 W/m² | - |
| 1788120579 | 40.56° C | 40% | 1006 hPa | - | - | 0 W/m² | - |
| 1788119652 | 40.56° C | 40% | 1006 hPa | - | - | 0 W/m² | - |
| 1788118716 | 41.11° C | 39% | 1006 hPa | - | - | 0 W/m² | - |
| 1788117786 | 41.11° C | 40% | 1006 hPa | - | - | 0 W/m² | - |
| 1788116858 | 41.11° C | 40% | 1006 hPa | - | - | 0 W/m² | - |
| 1788115933 | 41.11° C | 40% | 1007 hPa | - | - | 0 W/m² | - |
| 1788114989 | 41.11° C | 40% | 1007 hPa | - | - | 0 W/m² | - |
| 1788114061 | 40.56° C | 40% | 1007 hPa | - | - | 0 W/m² | - |
| 1788113131 | 41.11° C | 39% | 1007 hPa | - | - | 0 W/m² | - |
| 1788112196 | 42.22° C | 38% | 1008 hPa | - | - | 0 W/m² | - |
| 1788111264 | 42.78° C | 37% | 1008 hPa | - | - | 0 W/m² | - |
| 1788110327 | 42.78° C | 37% | 1008 hPa | - | - | 0 W/m² | - |
| 1788109398 | 42.22° C | 38% | 1008 hPa | - | - | 0 W/m² | - |
| 1788108471 | 41.67° C | 39% | 1008 hPa | - | - | 0 W/m² | - |
| 1788107532 | 42.78° C | 37% | 1008 hPa | - | - | 0 W/m² | - |
| 1788106571 | 43.33° C | 36% | 1008 hPa | - | - | 0 W/m² | - |
| 1788105616 | 42.78° C | 37% | 1009 hPa | - | - | 0 W/m² | - |
| 1788104655 | 41.67° C | 39% | 1009 hPa | - | - | 0 W/m² | - |
| 1788103714 | 43.89° C | 35% | 1009 hPa | - | - | 0 W/m² | - |
| 1788102783 | 45° C | 34% | 1008 hPa | - | - | 0 W/m² | - |
| 1788101834 | 44.44° C | 34% | 1008 hPa | - | - | 0 W/m² | - |
* Rain since midnight (hover to see other rain measurements)
** Current wind speed in m/s (hover to see current wind gust speed)